Williams Baptist College, Arkansas
Current Conditions -  °F | °C
As of 7:55 PM on Sunday 21 Dec 2014 (Local Time) from KARG Reporting Station
Overcast Overcast  
Wind Chill: 39°   Ceiling: 10000
Heat Index: 43°   Visibility: 10mi
Dew Point: 37°   Wind: 7mph
Humidity: 81%   Direction: 70°ENE
Pressure: 29.96"   Gusts: NA
Location:  36.1072°N, 90.9128°W
Report Text: KARG 220155Z AUTO 07006KT 10SM SCT085 OVC100 06/03 A2996 RMK AO1
Loading
Personal Weather Stations






























Interactive Weather Map New forecast layout! Learn more

10-Day Weather Forecast

Advertisements
Track Severe Weather on mobile